Time;durP1;ratioP1;P1;durP2;ratioP2;P2;SDS_P1;SDS_P2;PMS_P1;PMS_P2;Temp;Humidity;BMP_temperature;BMP_pressure;BME280_temperature;BME280_humidity;BME280_pressure;Samples;Min_cycle;Max_cycle;Signal;HPM_P1;HPM_P2
2022/05/10 00:02:23;;;;;;;7.05;3.42;;;;;;;17.06;65.33;100458.03;4319377;33;35004;-77
2022/05/10 00:05:10;;;;;;;6.30;3.75;;;;;;;16.78;66.28;100462.41;4318240;33;34652;-77
2022/05/10 00:07:56;;;;;;;4.70;2.97;;;;;;;17.06;64.85;100451.69;4319618;33;35163;-77
2022/05/10 00:10:44;;;;;;;6.78;3.92;;;;;;;17.06;64.90;100466.34;4309513;33;34725;-77
2022/05/10 00:13:30;;;;;;;6.03;3.30;;;;;;;16.91;65.30;100468.88;4308152;33;35903;-76
2022/05/10 00:16:18;;;;;;;4.65;3.03;;;;;;;16.99;65.14;100455.00;4319356;33;35611;-77
2022/05/10 00:19:04;;;;;;;4.55;3.42;;;;;;;17.14;64.50;100458.31;4319345;33;34256;-77
2022/05/10 00:21:50;;;;;;;11.48;3.08;;;;;;;17.05;64.27;100450.87;4319014;33;34791;-77
2022/05/10 00:24:37;;;;;;;6.12;3.50;;;;;;;17.16;63.30;100461.53;4319346;33;36046;-77
2022/05/10 00:27:24;;;;;;;4.85;3.62;;;;;;;16.93;64.12;100467.37;4319086;33;35503;-77
2022/05/10 00:30:11;;;;;;;6.45;3.15;;;;;;;17.04;64.94;100456.72;4319088;33;34146;-77
2022/05/10 00:32:57;;;;;;;4.55;3.00;;;;;;;17.08;64.53;100452.97;4308192;33;34730;-77
2022/05/10 00:35:44;;;;;;;6.75;3.20;;;;;;;17.11;64.42;100448.72;4319212;33;35938;-77
2022/05/10 00:38:35;;;;;;;5.93;3.20;;;;;;;16.83;65.00;100451.16;4318482;33;35491;-77
2022/05/10 00:41:33;;;;;;;6.57;3.10;;;;;;;17.02;64.62;100436.91;4308300;33;34063;-77
2022/05/10 00:44:22;;;;;;;4.15;3.05;;;;;;;16.92;64.36;100438.06;4319049;33;35645;-77
2022/05/10 00:47:17;;;;;;;4.68;3.10;;;;;;;16.87;65.38;100435.50;4319210;33;35184;-77
2022/05/10 00:50:24;;;;;;;7.03;3.83;;;;;;;16.80;65.41;100443.53;4318163;33;35746;-77
2022/05/10 00:53:21;;;;;;;5.78;3.05;;;;;;;17.03;64.87;100432.97;4318437;33;34299;-77
2022/05/10 00:56:13;;;;;;;3.83;2.85;;;;;;;16.81;65.09;100436.84;4329392;33;34654;-77
2022/05/10 00:59:10;;;;;;;6.25;3.67;;;;;;;16.55;66.40;100440.50;4328546;33;36018;-77
2022/05/10 01:02:02;;;;;;;4.45;3.05;;;;;;;16.50;66.64;100432.38;4313326;33;34724;-76
2022/05/10 01:04:49;;;;;;;;;;;;;;;16.55;66.22;100432.19;4318309;33;35099;-76
2022/05/10 01:07:44;;;;;;;4.80;3.20;;;;;;;16.72;64.68;100416.66;4317892;33;35076;-77
2022/05/10 01:10:52;;;;;;;5.32;3.00;;;;;;;16.29;66.10;100425.97;4311997;33;35014;-77
2022/05/10 01:13:51;;;;;;;5.15;2.90;;;;;;;16.49;65.35;100421.66;4317858;33;34566;-77
2022/05/10 01:16:37;;;;;;;4.80;2.95;;;;;;;16.70;64.86;100410.66;4306208;33;35087;-77
2022/05/10 01:19:24;;;;;;;6.97;3.10;;;;;;;16.43;64.95;100418.25;4318485;33;34839;-77
2022/05/10 01:22:34;;;;;;;4.82;3.03;;;;;;;16.46;65.29;100417.59;4319035;33;35064;-77
2022/05/10 01:25:28;;;;;;;6.00;3.20;;;;;;;16.33;66.35;100411.13;4320385;33;35563;-77
2022/05/10 01:28:23;;;;;;;5.32;2.72;;;;;;;16.33;65.46;100416.66;4318214;33;35004;-77
2022/05/10 01:31:16;;;;;;;6.20;3.47;;;;;;;16.50;64.92;100412.19;4319032;33;35588;-77
2022/05/10 01:34:07;;;;;;;4.97;3.08;;;;;;;15.82;68.10;100414.81;4317903;33;35975;-77
2022/05/10 01:36:57;;;;;;;4.93;3.20;;;;;;;16.27;66.91;100406.91;4307577;33;35600;-77
2022/05/10 01:39:54;;;;;;;4.82;3.17;;;;;;;16.12;67.71;100404.69;4318860;33;34189;-77
2022/05/10 01:42:45;;;;;;;5.10;3.30;;;;;;;16.42;66.42;100403.63;4317785;33;35658;-77
2022/05/10 01:45:43;;;;;;;4.57;3.00;;;;;;;16.01;67.55;100398.72;4309636;33;35883;-77
2022/05/10 01:48:35;;;;;;;6.57;3.25;;;;;;;16.29;66.43;100392.78;4320730;33;35563;-77
2022/05/10 01:51:28;;;;;;;4.47;2.70;;;;;;;16.42;66.06;100402.78;4333483;33;34391;-77
2022/05/10 01:54:46;;;;;;;6.25;3.30;;;;;;;16.28;66.37;100394.72;4313730;33;35642;-77
2022/05/10 01:57:35;;;;;;;6.80;3.25;;;;;;;16.02;67.85;100394.78;4307417;33;34908;-77
2022/05/10 02:00:23;;;;;;;3.97;2.80;;;;;;;16.16;67.17;100398.16;4307661;33;34642;-77
2022/05/10 02:03:27;;;;;;;6.75;3.20;;;;;;;16.13;67.46;100392.50;4318749;33;35051;-77
2022/05/10 02:06:34;;;;;;;4.05;2.70;;;;;;;16.15;66.96;100393.78;4307912;33;34601;-76
2022/05/10 02:09:51;;;;;;;4.95;2.92;;;;;;;16.11;66.49;100389.25;4307482;33;35888;-77
2022/05/10 02:12:48;;;;;;;3.85;2.90;;;;;;;16.08;67.18;100390.72;4319760;33;34854;-76
2022/05/10 02:15:42;;;;;;;4.87;2.87;;;;;;;16.00;67.83;100390.75;4317917;33;34195;-77
2022/05/10 02:18:34;;;;;;;4.50;3.00;;;;;;;15.89;67.86;100393.06;4307407;33;34699;-77
2022/05/10 02:21:22;;;;;;;;;;;;;;;16.13;66.62;100396.06;4318160;33;34963;-77
2022/05/10 02:24:21;;;;;;;5.87;3.12;;;;;;;16.12;66.56;100394.44;4320332;33;35022;-77
2022/05/10 02:27:15;;;;;;;4.95;3.08;;;;;;;15.95;66.81;100391.72;4309258;33;34291;-77
2022/05/10 02:30:10;;;;;;;4.55;2.70;;;;;;;15.78;66.94;100377.97;4309194;33;35662;-77
2022/05/10 02:33:06;;;;;;;5.25;3.20;;;;;;;16.02;66.08;100386.50;4309464;33;35030;-77
2022/05/10 02:35:55;;;;;;;5.85;3.12;;;;;;;15.92;66.96;100384.09;4320381;33;35698;-76
2022/05/10 02:38:47;;;;;;;9.18;3.78;;;;;;;15.71;67.55;100382.03;4309115;33;34265;-77
2022/05/10 02:41:34;;;;;;;6.47;3.42;;;;;;;15.54;68.16;100387.53;4319315;33;34659;-77
2022/05/10 02:44:20;;;;;;;6.60;3.08;;;;;;;15.29;68.67;100384.47;4320296;33;35949;-77
2022/05/10 02:47:08;;;;;;;5.18;2.72;;;;;;;15.52;68.01;100379.56;4319119;33;35733;-77
2022/05/10 02:49:54;;;;;;;6.85;3.45;;;;;;;15.57;67.10;100378.59;4320222;33;34500;-77
2022/05/10 02:52:41;;;;;;;6.82;3.37;;;;;;;15.58;66.89;100385.75;4319247;33;35616;-77
2022/05/10 02:55:47;;;;;;;4.75;3.03;;;;;;;15.42;67.64;100381.84;4319862;33;34986;-77
2022/05/10 02:58:43;;;;;;;5.43;3.00;;;;;;;15.39;67.72;100383.31;4319988;33;34681;-77
2022/05/10 03:02:00;;;;;;;5.95;3.08;;;;;;;15.62;66.70;100381.19;4320064;33;34204;-77
2022/05/10 03:04:52;;;;;;;5.80;3.20;;;;;;;15.51;66.89;100379.87;4315847;33;34844;-76
2022/05/10 03:07:38;;;;;;;5.40;2.85;;;;;;;15.45;67.15;100383.97;4308038;33;35983;-77
2022/05/10 03:10:24;;;;;;;5.28;2.83;;;;;;;15.32;67.84;100383.00;4318338;33;34725;-77
2022/05/10 03:13:11;;;;;;;5.43;3.12;;;;;;;15.30;67.67;100386.06;4319269;33;34171;-76
2022/05/10 03:15:57;;;;;;;5.25;3.10;;;;;;;15.18;68.17;100379.59;4319102;33;35701;-76
2022/05/10 03:18:44;;;;;;;4.78;3.30;;;;;;;15.26;67.65;100379.59;4319379;33;36048;-77
2022/05/10 03:21:31;;;;;;;5.15;3.00;;;;;;;15.20;67.92;100391.94;4319369;33;34740;-77
2022/05/10 03:24:17;;;;;;;5.65;3.12;;;;;;;15.12;68.28;100387.22;4319091;33;35125;-76
2022/05/10 03:27:05;;;;;;;6.40;3.15;;;;;;;14.95;68.52;100382.47;4319301;33;34771;-76
2022/05/10 03:29:51;;;;;;;8.27;3.35;;;;;;;14.87;68.71;100383.25;4318323;33;35081;-76
2022/05/10 03:32:38;;;;;;;6.28;3.20;;;;;;;14.77;69.08;100381.62;4318891;33;35498;-76
2022/05/10 03:35:24;;;;;;;4.93;3.37;;;;;;;14.87;68.91;100383.25;4319029;33;34422;-77
2022/05/10 03:38:10;;;;;;;6.15;3.53;;;;;;;14.58;69.71;100378.34;4319101;33;34798;-76
2022/05/10 03:40:57;;;;;;;6.12;3.08;;;;;;;14.83;68.85;100383.09;4319105;33;35967;-76
2022/05/10 03:43:43;;;;;;;6.05;3.40;;;;;;;14.73;69.11;100383.41;4317999;33;34879;-76
2022/05/10 03:46:30;;;;;;;7.40;3.30;;;;;;;14.87;68.90;100376.94;4318946;33;35446;-76
2022/05/10 03:49:17;;;;;;;5.53;3.08;;;;;;;14.53;69.91;100384.00;4317610;33;34653;-74
2022/05/10 03:52:06;;;;;;;5.57;3.37;;;;;;;14.83;68.73;100382.31;4317512;33;36026;-74
2022/05/10 03:54:52;;;;;;;7.32;3.55;;;;;;;14.74;69.40;100382.28;4317927;33;35484;-74
2022/05/10 03:57:38;;;;;;;5.78;3.33;;;;;;;14.81;68.73;100371.56;4317625;33;34230;-73
2022/05/10 04:00:27;;;;;;;6.28;3.12;;;;;;;14.77;68.86;100376.13;4318639;33;34889;-74
2022/05/10 04:03:13;;;;;;;5.30;3.37;;;;;;;14.69;69.19;100371.38;4307430;33;34942;-74
2022/05/10 04:05:59;;;;;;;4.60;3.15;;;;;;;14.64;69.12;100379.81;4316585;33;90919;-74
2022/05/10 04:08:46;;;;;;;6.35;2.95;;;;;;;14.75;69.33;100375.63;4319253;33;34262;-74
2022/05/10 04:11:33;;;;;;;7.75;3.75;;;;;;;14.79;68.79;100373.81;4308013;33;34667;-74
2022/05/10 04:14:20;;;;;;;5.32;3.35;;;;;;;14.77;68.97;100378.88;4313834;33;34965;-74
2022/05/10 04:17:06;;;;;;;7.57;3.75;;;;;;;14.82;69.02;100378.69;4319497;33;33854;-73
2022/05/10 04:19:52;;;;;;;7.50;3.30;;;;;;;15.15;68.61;100383.00;4319434;33;35200;-73
2022/05/10 04:22:38;;;;;;;5.07;3.10;;;;;;;15.26;67.35;100378.78;4308467;33;35645;-72
2022/05/10 04:25:31;;;;;;;5.87;3.45;;;;;;;15.38;67.42;100389.97;4319590;33;35107;-73
2022/05/10 04:28:18;;;;;;;7.28;3.60;;;;;;;15.30;67.67;100391.59;4319434;33;35552;-74
2022/05/10 04:31:05;;;;;;;7.30;3.55;;;;;;;15.40;67.41;100390.47;4318395;33;35188;-74
2022/05/10 04:33:51;;;;;;;9.52;3.30;;;;;;;15.52;67.42;100392.56;4318365;33;34743;-74
2022/05/10 04:36:38;;;;;;;6.60;3.30;;;;;;;15.57;66.34;100406.22;4308340;33;35947;-75
2022/05/10 04:39:24;;;;;;;6.43;3.55;;;;;;;15.65;67.01;100404.56;4319459;33;35782;-74
2022/05/10 04:42:11;;;;;;;6.28;3.25;;;;;;;15.38;67.63;100397.44;4319416;33;35374;-75
2022/05/10 04:44:59;;;;;;;4.87;2.95;;;;;;;15.82;65.38;100406.53;4318457;33;35592;-75
2022/05/10 04:47:46;;;;;;;6.70;3.10;;;;;;;16.03;64.77;100401.97;4318505;33;35012;-75
2022/05/10 04:50:32;;;;;;;7.50;3.33;;;;;;;16.32;64.45;100403.19;4318488;33;34604;-75
2022/05/10 04:53:19;;;;;;;6.95;3.35;;;;;;;16.42;63.81;100411.09;4318425;33;34203;-75
2022/05/10 04:56:05;;;;;;;7.60;3.20;;;;;;;16.49;62.21;100411.41;4318394;33;35582;-75
2022/05/10 04:58:54;;;;;;;4.47;3.00;;;;;;;16.59;62.85;100402.75;4319357;33;35970;-75
2022/05/10 05:01:41;;;;;;;6.12;3.22;;;;;;;16.66;63.30;100409.72;4308631;33;34597;-74
2022/05/10 05:04:28;;;;;;;5.15;3.22;;;;;;;16.86;63.69;100406.22;4319145;33;35036;-75
2022/05/10 05:07:14;;;;;;;5.53;3.17;;;;;;;16.95;63.72;100409.72;4319343;33;34774;-75
2022/05/10 05:10:02;;;;;;;6.93;3.28;;;;;;;17.03;63.49;100411.62;4319344;33;34984;-75
2022/05/10 05:12:48;;;;;;;7.85;3.00;;;;;;;17.24;63.18;100413.59;4319056;33;34712;-75
2022/05/10 05:15:34;;;;;;;6.30;3.37;;;;;;;17.41;63.29;100412.66;4319212;33;34291;-75
2022/05/10 05:18:21;;;;;;;9.25;3.40;;;;;;;16.80;62.37;100413.87;4319330;33;34725;-75
2022/05/10 05:25:04;;;;;;;6.62;3.42;;;;;;;17.76;60.55;100415.97;4319354;33;34647;-74
2022/05/10 05:27:52;;;;;;;8.10;3.55;;;;;;;17.78;60.69;100435.84;4308065;33;34189;-74
2022/05/10 05:30:39;;;;;;;6.40;3.60;;;;;;;17.68;60.89;100414.88;4318109;33;35534;-74
2022/05/10 05:33:26;;;;;;;7.80;3.15;;;;;;;17.89;61.31;100425.97;4318114;33;36088;-75
2022/05/10 05:36:12;;;;;;;6.75;3.20;;;;;;;17.78;60.35;100424.75;4319059;33;35076;-74
2022/05/10 05:38:59;;;;;;;7.78;3.35;;;;;;;18.09;59.36;100434.56;4307896;33;35237;-75
2022/05/10 05:41:45;;;;;;;7.78;3.65;;;;;;;18.38;57.31;100431.62;4318965;33;35682;-75
2022/05/10 05:44:31;;;;;;;6.75;3.65;;;;;;;18.57;55.85;100427.50;4319017;33;35119;-75
2022/05/10 05:47:17;;;;;;;8.27;3.60;;;;;;;17.39;59.87;100432.41;4319160;33;35541;-75
2022/05/10 05:50:05;;;;;;;9.27;3.60;;;;;;;18.06;58.86;100438.84;4307736;33;34118;-75
2022/05/10 05:52:51;;;;;;;9.88;3.87;;;;;;;18.50;57.07;100427.25;4318025;33;34608;-74
2022/05/10 05:55:41;;;;;;;9.00;3.97;;;;;;;17.84;59.02;100428.94;4317927;33;35044;-75
2022/05/10 05:58:28;;;;;;;10.95;4.07;;;;;;;18.14;60.16;100440.72;4317767;33;35418;-75
2022/05/10 06:01:16;;;;;;;8.55;4.00;;;;;;;17.94;59.92;100434.06;4318870;33;35219;-75
2022/05/10 06:04:02;;;;;;;13.13;4.10;;;;;;;18.20;58.90;100424.66;4307745;33;34728;-75
2022/05/10 06:06:49;;;;;;;12.88;3.92;;;;;;;18.53;56.81;100427.37;4307700;33;35981;-75
2022/05/10 06:09:38;;;;;;;8.27;3.45;;;;;;;18.65;56.50;100434.91;4317605;33;35425;-75
2022/05/10 06:12:25;;;;;;;10.75;3.87;;;;;;;18.57;56.69;100435.81;4318891;33;34263;-75
2022/05/10 06:15:15;;;;;;;8.60;3.83;;;;;;;18.17;56.76;100442.81;4307511;33;34605;-75
2022/05/10 06:18:04;;;;;;;8.52;3.85;;;;;;;18.27;57.00;100436.03;4317398;33;35058;-75
2022/05/10 06:20:52;;;;;;;11.63;3.80;;;;;;;18.06;57.98;100440.81;4318491;33;34780;-75
2022/05/10 06:23:39;;;;;;;13.62;3.15;;;;;;;18.39;56.44;100438.00;4318543;33;35104;-75
2022/05/10 06:26:25;;;;;;;11.27;3.92;;;;;;;19.05;55.80;100440.59;4318349;33;34018;-76
2022/05/10 06:29:11;;;;;;;10.25;3.12;;;;;;;18.57;55.68;100441.38;4318075;33;35228;-75
2022/05/10 06:31:58;;;;;;;6.90;3.00;;;;;;;19.45;55.07;100442.62;4318249;33;34957;-75
2022/05/10 06:34:44;;;;;;;6.35;2.92;;;;;;;19.15;53.73;100441.28;4318363;33;35276;-74
2022/05/10 06:40:36;;;;;;;8.40;3.33;;;;;;;19.07;52.67;100440.25;4318137;33;36021;-75
2022/05/10 06:43:23;;;;;;;6.97;2.85;;;;;;;19.68;52.46;100439.34;4318282;33;34533;-76
2022/05/10 06:46:15;;;;;;;6.57;2.72;;;;;;;19.86;51.12;100432.28;4318159;33;34209;-75
2022/05/10 06:49:04;;;;;;;6.03;2.53;;;;;;;19.52;49.57;100439.22;4309191;33;34706;-75
2022/05/10 06:51:50;;;;;;;7.37;2.60;;;;;;;19.87;48.84;100436.72;4307075;33;35889;-75
2022/05/10 06:54:36;;;;;;;7.60;2.60;;;;;;;20.26;48.33;100438.94;4318331;33;35556;-75
2022/05/10 06:57:23;;;;;;;5.03;2.50;;;;;;;20.25;49.25;100435.34;4317987;33;34269;-75
2022/05/10 07:00:11;;;;;;;6.65;2.45;;;;;;;20.09;48.30;100435.31;4306757;33;34731;-75
2022/05/10 07:02:56;;;;;;;6.22;2.60;;;;;;;20.09;45.98;100437.28;4306616;33;35973;-75
2022/05/10 07:05:44;;;;;;;5.85;2.50;;;;;;;20.53;44.97;100438.09;4317868;33;34643;-76
2022/05/10 07:08:31;;;;;;;5.43;2.80;;;;;;;20.18;44.46;100438.75;4308126;33;35114;-75
2022/05/10 07:11:18;;;;;;;6.70;2.47;;;;;;;20.19;43.73;100437.59;4308967;33;34773;-76
2022/05/10 07:14:04;;;;;;;5.50;2.15;;;;;;;20.16;43.96;100440.28;4308899;33;35956;-75
2022/05/10 07:16:51;;;;;;;3.37;2.20;;;;;;;20.51;45.27;100440.41;4319978;33;35633;-75
2022/05/10 07:19:37;;;;;;;4.70;2.40;;;;;;;20.55;44.22;100444.13;4320136;33;34191;-76
2022/05/10 07:22:25;;;;;;;6.10;2.50;;;;;;;21.04;41.30;100435.38;4320226;33;34696;-76
2022/05/10 07:25:13;;;;;;;4.72;2.37;;;;;;;20.93;42.32;100437.09;4318919;33;34953;-76
2022/05/10 07:28:00;;;;;;;6.65;2.53;;;;;;;20.76;42.96;100440.25;4308739;33;35647;-76
2022/05/10 07:30:46;;;;;;;5.03;2.50;;;;;;;20.00;44.21;100438.25;4318949;33;34244;-76
2022/05/10 07:33:32;;;;;;;3.83;2.50;;;;;;;20.58;45.07;100443.41;4319021;33;35637;-76
2022/05/10 07:36:28;;;;;;;5.00;2.90;;;;;;;20.38;44.05;100444.44;4318802;33;34984;-75
2022/05/10 07:39:18;;;;;;;5.45;3.00;;;;;;;20.63;43.71;100440.34;4319986;33;34736;-75
2022/05/10 07:42:05;;;;;;;4.45;2.62;;;;;;;20.26;43.49;100436.97;4319745;33;34204;-75
2022/05/10 07:44:54;;;;;;;4.72;2.53;;;;;;;20.26;45.41;100438.94;4319672;33;35613;-75
2022/05/10 07:47:44;;;;;;;4.70;2.45;;;;;;;20.27;45.15;100446.13;4318615;33;35126;-76
2022/05/10 07:50:35;;;;;;;4.80;2.70;;;;;;;20.70;44.15;100445.28;4319771;33;35500;-75
2022/05/10 07:53:22;;;;;;;4.22;2.28;;;;;;;21.08;44.25;100447.37;4319761;33;34151;-75
2022/05/10 07:56:08;;;;;;;5.50;2.35;;;;;;;21.40;44.87;100435.38;4318341;33;33865;-76
2022/05/10 07:59:10;;;;;;;6.90;2.70;;;;;;;21.16;44.48;100436.41;4319542;33;34994;-76
2022/05/10 08:01:58;;;;;;;6.12;2.90;;;;;;;21.26;44.10;100430.25;4318234;33;34816;-77
2022/05/10 08:04:46;;;;;;;6.75;2.67;;;;;;;20.92;43.04;100432.69;4308387;33;34229;-76
2022/05/10 08:07:33;;;;;;;6.37;2.53;;;;;;;21.40;43.78;100436.19;4319455;33;34655;-76
2022/05/10 08:10:19;;;;;;;6.25;2.90;;;;;;;21.63;44.26;100438.25;4319167;33;34958;-76
2022/05/10 08:13:09;;;;;;;4.37;2.65;;;;;;;21.78;41.82;100434.59;4318507;33;35473;-75
2022/05/10 08:15:56;;;;;;;6.20;3.10;;;;;;;21.53;40.84;100432.09;4319696;33;34268;-76
2022/05/10 08:18:45;;;;;;;4.12;2.67;;;;;;;21.98;39.77;100422.25;4318501;33;34694;-76
2022/05/10 08:21:32;;;;;;;6.68;2.62;;;;;;;22.35;40.83;100424.56;4319283;33;36090;-76
2022/05/10 08:24:18;;;;;;;6.55;2.33;;;;;;;22.63;40.83;100426.22;4319498;33;34838;-76
2022/05/10 08:27:04;;;;;;;5.60;3.42;;;;;;;22.55;41.22;100425.28;4319423;33;34254;-76
2022/05/10 08:29:50;;;;;;;4.78;2.62;;;;;;;22.50;40.21;100422.81;4319436;33;34744;-76
2022/05/10 08:32:38;;;;;;;4.60;2.53;;;;;;;23.10;42.05;100422.19;4308290;33;34970;-76
2022/05/10 08:35:45;;;;;;;6.30;2.55;;;;;;;23.14;39.79;100423.06;4318641;33;35604;-76
2022/05/10 08:38:31;;;;;;;9.85;2.60;;;;;;;23.34;38.77;100418.94;4307840;33;34184;-76
2022/05/10 08:41:22;;;;;;;5.82;2.50;;;;;;;23.44;36.96;100417.47;4307910;33;35677;-76
2022/05/10 08:44:16;;;;;;;;;;;;;;;23.65;35.12;100416.13;4308075;33;35992;-76
2022/05/10 08:47:06;;;;;;;3.85;2.42;;;;;;;23.61;34.47;100415.28;4318289;33;35800;-76
2022/05/10 08:49:59;;;;;;;7.03;3.17;;;;;;;23.56;35.18;100411.66;4319153;33;35204;-76
2022/05/10 08:53:07;;;;;;;5.15;2.53;;;;;;;22.93;36.93;100408.72;4318898;33;35615;-76
2022/05/10 08:55:59;;;;;;;7.43;2.60;;;;;;;23.43;35.91;100409.47;4307919;33;34928;-76
2022/05/10 08:58:51;;;;;;;;;;;;;;;23.56;37.40;100399.63;4308622;33;34591;-77
2022/05/10 09:02:03;;;;;;;4.55;2.87;;;;;;;23.83;37.21;100405.19;4319319;33;34110;-76
2022/05/10 09:04:58;;;;;;;5.68;3.12;;;;;;;23.98;38.21;100402.16;4308028;33;35590;-76
2022/05/10 09:08:11;;;;;;;8.00;2.95;;;;;;;24.16;36.02;100402.34;4317889;33;35005;-76
2022/05/10 09:11:05;;;;;;;5.75;2.60;;;;;;;24.32;38.01;100407.69;4318678;33;34681;-77
2022/05/10 09:13:52;;;;;;;6.68;2.50;;;;;;;24.39;36.27;100404.13;4307794;33;35065;-77
2022/05/10 09:16:39;;;;;;;5.05;2.92;;;;;;;24.82;36.38;100398.94;4314624;33;35584;-76
2022/05/10 09:19:33;;;;;;;9.55;3.40;;;;;;;24.88;36.89;100400.19;4317928;33;35201;-77
2022/05/10 09:22:52;;;;;;;10.13;3.10;;;;;;;25.02;33.97;100400.28;4307621;33;34876;-77
2022/05/10 09:25:41;;;;;;;7.95;3.40;;;;;;;24.81;34.55;100391.72;4317726;33;34427;-76
2022/05/10 09:28:37;;;;;;;9.07;3.12;;;;;;;24.65;33.40;100395.59;4317455;33;34823;-76
2022/05/10 09:35:00;;;;;;;7.93;3.20;;;;;;;25.07;34.10;100394.31;4317899;33;34704;-77
2022/05/10 09:37:53;;;;;;;9.85;3.22;;;;;;;23.92;35.03;100397.28;4307944;33;35104;-77
2022/05/10 09:40:48;;;;;;;8.07;3.12;;;;;;;24.09;35.38;100391.06;4307815;33;34665;-77
2022/05/10 09:43:34;;;;;;;7.30;4.00;;;;;;;22.85;36.51;100400.25;4307784;33;34958;-76
2022/05/10 09:46:24;;;;;;;7.82;3.42;;;;;;;22.23;39.85;100394.84;4318364;33;34701;-75
2022/05/10 09:49:37;;;;;;;10.50;3.85;;;;;;;22.08;41.15;100408.88;4317718;33;35093;-76
2022/05/10 09:52:27;;;;;;;14.75;3.62;;;;;;;21.48;41.96;100398.12;4317602;33;34627;-77
2022/05/10 09:55:28;;;;;;;7.93;3.92;;;;;;;21.88;42.65;100396.94;4318841;33;35083;-76
2022/05/10 09:58:19;;;;;;;8.20;4.15;;;;;;;21.96;40.32;100393.91;4307397;33;34629;-76
2022/05/10 10:01:10;;;;;;;10.80;3.95;;;;;;;21.79;41.46;100384.00;4307777;33;34119;-76
2022/05/10 10:03:59;;;;;;;;;;;;;;;22.81;40.05;100382.63;4318903;33;34686;-77
2022/05/10 10:07:20;;;;;;;7.53;3.85;;;;;;;23.61;37.91;100388.12;4317720;33;35274;-76
2022/05/10 10:10:22;;;;;;;12.35;4.97;;;;;;;23.37;39.17;100381.03;4318555;33;36430;-76
2022/05/10 10:13:30;;;;;;;8.43;4.00;;;;;;;24.12;38.92;100379.09;4318015;33;34201;-77
2022/05/10 10:16:21;;;;;;;6.50;3.75;;;;;;;24.87;37.86;100368.56;4318015;33;34664;-76
2022/05/10 10:19:41;;;;;;;7.15;4.50;;;;;;;25.36;36.43;100372.03;4306621;33;35043;-76
2022/05/10 10:22:39;;;;;;;8.35;3.87;;;;;;;24.20;35.56;100366.78;4316978;33;35731;-75
2022/05/10 10:25:46;;;;;;;6.35;3.62;;;;;;;24.68;36.27;100364.00;4306430;33;34303;-77
2022/05/10 10:28:38;;;;;;;7.60;3.65;;;;;;;23.10;38.26;100353.09;4316258;33;34642;-76
2022/05/10 10:31:29;;;;;;;7.28;4.03;;;;;;;23.95;36.63;100351.75;4316390;33;34971;-76
2022/05/10 10:34:23;;;;;;;6.50;3.45;;;;;;;23.17;38.51;100351.59;4307126;33;34590;-77
2022/05/10 10:37:16;;;;;;;7.82;3.65;;;;;;;23.90;39.16;100344.50;4313064;33;34976;-76
2022/05/10 10:40:22;;;;;;;4.40;3.22;;;;;;;23.97;38.96;100346.56;4307129;33;35768;-75
2022/05/10 10:43:46;;;;;;;5.65;3.33;;;;;;;24.30;36.88;100339.25;4312279;33;34948;-76
2022/05/10 10:46:40;;;;;;;8.80;4.32;;;;;;;25.37;35.64;100330.78;4319755;33;34778;-76
2022/05/10 10:49:47;;;;;;;15.20;4.80;;;;;;;24.91;34.59;100326.53;4319787;33;34446;-77
2022/05/10 10:52:34;;;;;;;6.85;4.50;;;;;;;25.36;36.21;100321.56;4318816;33;35575;-77
2022/05/10 10:55:24;;;;;;;7.50;3.95;;;;;;;25.52;37.21;100321.19;4308284;33;35028;-76
2022/05/10 10:58:21;;;;;;;6.78;3.80;;;;;;;25.65;33.82;100318.84;4308599;33;35575;-77
2022/05/10 11:01:29;;;;;;;10.27;3.95;;;;;;;25.95;33.83;100308.06;4319614;33;34341;-77
2022/05/10 11:04:41;;;;;;;8.00;5.25;;;;;;;25.73;33.58;100303.62;4318340;33;34642;-77
2022/05/10 11:07:34;;;;;;;;;;;;;;;24.73;37.09;100317.19;4318628;33;34973;-77
2022/05/10 11:10:45;;;;;;;7.00;4.85;;;;;;;26.44;33.33;100303.69;4318748;33;35766;-77
2022/05/10 11:13:50;;;;;;;8.90;4.50;;;;;;;25.76;34.43;100302.81;4308553;33;34107;-76
2022/05/10 11:16:45;;;;;;;6.97;4.82;;;;;;;24.62;34.47;100297.53;4319718;33;35770;-76
2022/05/10 11:19:57;;;;;;;6.45;4.03;;;;;;;25.58;33.64;100300.75;4319536;33;35067;-76
2022/05/10 11:22:46;;;;;;;;;;;;;;;24.10;36.31;100305.88;4318239;33;35705;-78
2022/05/10 11:25:47;;;;;;;7.25;2.37;;;;;;;22.64;38.07;100313.31;4319097;33;35142;-76
2022/05/10 11:29:00;;;;;;;4.97;2.08;;;;;;;21.69;40.97;100325.25;4317806;33;34712;-77
2022/05/10 11:32:07;;;;;;;5.93;1.87;;;;;;;21.22;43.16;100312.34;4318158;33;34995;-76
2022/05/10 11:35:06;;;;;;;3.37;1.52;;;;;;;19.67;44.14;100313.44;4315870;33;34310;-77
2022/05/10 11:38:06;;;;;;;4.75;1.98;;;;;;;20.04;43.54;100309.62;4317482;33;34155;-75
2022/05/10 11:41:06;;;;;;;5.78;2.15;;;;;;;19.06;49.07;100316.41;4316276;33;35712;-77
2022/05/10 11:44:04;;;;;;;6.40;2.42;;;;;;;18.26;50.01;100314.31;4318044;33;35063;-74
2022/05/10 11:47:11;;;;;;;9.73;2.83;;;;;;;17.37;59.40;100312.00;4318356;33;34267;-75
2022/05/10 11:50:10;;;;;;;7.85;3.00;;;;;;;16.91;65.08;100325.75;4316909;33;34087;-74
2022/05/10 11:53:22;;;;;;;8.00;3.15;;;;;;;16.02;68.75;100330.41;4317746;33;34399;-73
2022/05/10 11:56:08;;;;;;;8.40;2.37;;;;;;;16.06;68.21;100321.13;4317112;33;35014;-74
2022/05/10 11:58:55;;;;;;;6.60;3.17;;;;;;;16.18;69.97;100312.13;4306906;33;34637;-74
2022/05/10 12:01:48;;;;;;;5.70;2.95;;;;;;;16.07;71.67;100319.19;4318335;33;34172;-74
2022/05/10 12:04:39;;;;;;;8.60;4.07;;;;;;;16.70;68.93;100319.34;4316717;33;34583;-74
2022/05/10 12:07:25;;;;;;;6.07;3.67;;;;;;;16.93;71.69;100306.81;4317612;33;36046;-74
2022/05/10 12:10:31;;;;;;;7.72;4.25;;;;;;;17.54;70.80;100309.88;4317503;33;33570;-75
2022/05/10 12:24:04;;;;;;;6.55;3.30;;;;;;;19.37;70.23;100287.94;4316588;33;33925;-76
2022/05/10 12:26:55;;;;;;;7.40;3.20;;;;;;;20.14;67.02;100279.25;4306913;33;35228;-75
2022/05/10 12:29:42;;;;;;;6.93;3.33;;;;;;;20.21;67.46;100271.09;4317287;33;34649;-75
2022/05/10 12:32:34;;;;;;;8.00;3.83;;;;;;;20.65;66.34;100265.38;4317959;33;35936;-76
2022/05/10 12:35:30;;;;;;;8.07;2.83;;;;;;;20.92;66.75;100251.63;4318529;33;34724;-76
2022/05/10 12:38:52;;;;;;;5.22;2.75;;;;;;;21.39;63.42;100239.44;4318405;33;34231;-76
2022/05/10 12:41:45;;;;;;;4.78;2.50;;;;;;;21.25;61.68;100236.34;4299167;33;34715;-76
2022/05/10 12:44:37;;;;;;;4.07;2.20;;;;;;;20.56;60.39;100228.59;4311826;33;35915;-76
2022/05/10 12:47:52;;;;;;;6.97;2.40;;;;;;;20.71;57.18;100226.13;4319547;33;34664;-76
2022/05/10 12:51:11;;;;;;;4.20;1.80;;;;;;;22.14;55.29;100220.37;4319405;33;34280;-76
2022/05/10 12:54:01;;;;;;;5.30;1.75;;;;;;;23.58;41.70;100210.66;4319212;33;34753;-76
2022/05/10 12:57:12;;;;;;;3.42;1.73;;;;;;;24.29;40.10;100203.25;4308292;33;35043;-76
2022/05/10 13:00:09;;;;;;;3.28;1.83;;;;;;;24.11;44.59;100203.94;4318421;33;34633;-76
2022/05/10 13:03:09;;;;;;;4.37;1.80;;;;;;;24.49;40.85;100196.19;4319210;33;34269;-76
2022/05/10 13:06:07;;;;;;;5.35;2.28;;;;;;;25.36;45.75;100186.91;4307359;33;34667;-76
2022/05/10 13:09:04;;;;;;;4.53;2.25;;;;;;;25.36;48.10;100181.31;4319370;33;35970;-76
2022/05/10 13:12:02;;;;;;;5.32;2.40;;;;;;;25.91;43.41;100174.53;4319180;33;34672;-76
2022/05/10 13:15:00;;;;;;;6.45;2.20;;;;;;;25.85;40.83;100168.53;4318444;33;35120;-76
2022/05/10 13:17:49;;;;;;;3.67;2.20;;;;;;;25.86;38.91;100163.72;4308124;33;34737;-76
2022/05/10 13:20:35;;;;;;;3.83;2.40;;;;;;;25.56;38.76;100157.28;4319151;33;34941;-77
2022/05/10 13:23:28;;;;;;;5.57;2.80;;;;;;;26.39;36.02;100158.00;4318300;33;35067;-77
2022/05/10 13:26:15;;;;;;;4.85;2.20;;;;;;;26.92;34.33;100148.56;4318972;33;35280;-77
2022/05/10 13:29:03;;;;;;;3.80;2.05;;;;;;;27.06;34.76;100142.03;4319139;33;34698;-77
2022/05/10 13:31:49;;;;;;;4.53;2.20;;;;;;;27.69;33.80;100129.94;4319327;33;35117;-77
2022/05/10 13:34:46;;;;;;;3.78;2.22;;;;;;;26.79;33.29;100130.56;4319026;33;34770;-77
2022/05/10 13:37:35;;;;;;;4.40;2.40;;;;;;;27.56;30.96;100126.84;4307998;33;34211;-77
2022/05/10 13:40:37;;;;;;;4.93;2.75;;;;;;;27.22;35.24;100124.69;4307760;33;34674;-77
2022/05/10 13:43:56;;;;;;;5.97;2.80;;;;;;;27.22;32.94;100121.87;4317690;33;35017;-77
2022/05/10 13:46:49;;;;;;;4.55;2.62;;;;;;;27.54;31.50;100115.97;4311428;33;34571;-77